Time;durP1;ratioP1;P1;durP2;ratioP2;P2;SDS_P1;SDS_P2;PMS_P1;PMS_P2;Temp;Humidity;BMP_temperature;BMP_pressure;BME280_temperature;BME280_humidity;BME280_pressure;Samples;Min_cycle;Max_cycle;Signal;HPM_P1;HPM_P2
2023/12/15 00:02:59;;;;;;;14.80;11.23;;;4.70;99.90;;;5.24;100.00;98965.25;10362385;28;20228;-67
2023/12/15 00:08:03;;;;;;;15.57;10.80;;;4.70;99.90;;;5.22;100.00;98968.38;10364619;28;20229;-69
2023/12/15 00:13:07;;;;;;;17.87;12.50;;;4.70;99.90;;;5.33;100.00;98982.97;10361477;28;20229;-67
2023/12/15 00:18:10;;;;;;;16.37;12.53;;;4.80;99.90;;;5.40;100.00;98983.66;10352522;28;20244;-67
2023/12/15 00:23:14;;;;;;;18.73;12.30;;;4.70;99.90;;;5.20;100.00;98984.28;10359620;28;20872;-65
2023/12/15 00:28:18;;;;;;;16.53;12.27;;;4.70;99.90;;;5.25;100.00;98999.06;10379520;28;20237;-66
2023/12/15 00:33:22;;;;;;;18.13;12.73;;;4.70;99.90;;;5.31;100.00;99008.16;10360002;28;20297;-66
2023/12/15 00:38:25;;;;;;;16.13;12.30;;;4.80;99.90;;;5.26;100.00;99016.06;10365240;28;20611;-66
2023/12/15 00:43:29;;;;;;;16.93;11.73;;;4.70;99.90;;;5.32;100.00;99017.56;10372827;28;20240;-66
2023/12/15 00:48:32;;;;;;;18.90;12.57;;;4.70;99.90;;;5.34;100.00;99030.38;10358615;28;20237;-66
2023/12/15 00:53:36;;;;;;;20.63;12.50;;;4.80;99.90;;;5.29;100.00;99032.44;10363634;28;20253;-66
2023/12/15 00:58:40;;;;;;;19.20;12.87;;;4.70;99.90;;;5.27;100.00;99039.03;10370027;28;20233;-66
2023/12/15 01:03:44;;;;;;;19.20;12.40;;;4.70;99.90;;;5.37;100.00;99051.81;10364248;28;20225;-67
2023/12/15 01:08:47;;;;;;;14.53;10.70;;;4.70;99.90;;;5.27;100.00;99053.34;10370638;28;20233;-66
2023/12/15 01:13:51;;;;;;;17.93;12.00;;;4.70;99.90;;;5.27;100.00;99063.50;10372054;28;20238;-66
2023/12/15 01:18:54;;;;;;;17.80;11.77;;;4.70;99.90;;;5.30;100.00;99074.81;10377848;28;20317;-66
2023/12/15 01:23:58;;;;;;;14.67;11.57;;;4.80;99.90;;;5.21;100.00;99084.06;10360927;28;20234;-65
2023/12/15 01:29:02;;;;;;;16.93;12.40;;;4.70;99.90;;;5.15;100.00;99088.50;10365816;28;20229;-67
2023/12/15 01:34:05;;;;;;;18.50;12.57;;;4.70;99.90;;;5.17;100.00;99097.16;10361988;28;20230;-66
2023/12/15 01:39:09;;;;;;;18.70;12.47;;;4.70;99.90;;;5.19;100.00;99113.41;10363050;28;20663;-64
2023/12/15 01:44:13;;;;;;;19.10;13.33;;;4.70;99.90;;;5.14;100.00;99123.09;10370892;28;20217;-68
2023/12/15 01:49:17;;;;;;;18.27;12.87;;;4.70;99.90;;;5.21;100.00;99129.69;10364208;28;20300;-65
2023/12/15 01:54:20;;;;;;;18.97;12.80;;;4.70;99.90;;;5.28;100.00;99132.06;10368478;28;22266;-65
2023/12/15 01:59:24;;;;;;;21.20;14.30;;;4.70;99.90;;;5.18;100.00;99124.31;10361280;28;20232;-68
2023/12/15 02:04:27;;;;;;;17.87;12.53;;;4.70;99.90;;;5.31;100.00;99131.47;10359269;28;20222;-67
2023/12/15 02:09:31;;;;;;;18.37;13.33;;;4.80;99.90;;;5.13;100.00;99135.63;10367676;28;20229;-67
2023/12/15 02:14:35;;;;;;;17.17;12.57;;;4.70;99.90;;;5.26;100.00;99148.75;10367532;28;20242;-67
2023/12/15 02:19:38;;;;;;;19.30;13.90;;;4.70;99.90;;;5.24;100.00;99144.28;10361213;28;20234;-65
2023/12/15 02:24:43;;;;;;;20.10;13.63;;;4.70;99.90;;;5.29;100.00;99149.03;10367023;28;20772;-65
2023/12/15 02:29:46;;;;;;;21.63;13.63;;;4.70;99.90;;;5.27;100.00;99153.09;10361864;28;20225;-64
2023/12/15 02:34:49;;;;;;;20.40;13.40;;;4.70;99.90;;;5.24;100.00;99149.38;10363853;28;20329;-66
2023/12/15 02:39:54;;;;;;;19.13;12.77;;;4.70;99.90;;;5.13;100.00;99166.03;10363722;28;20230;-65
2023/12/15 02:44:57;;;;;;;19.33;13.23;;;4.70;99.90;;;5.22;100.00;99172.00;10367155;28;20676;-67
2023/12/15 02:50:00;;;;;;;20.63;13.17;;;4.70;99.90;;;5.25;100.00;99182.44;10370404;28;20221;-67
2023/12/15 02:55:06;;;;;;;21.00;13.57;;;4.70;99.90;;;5.19;100.00;99186.91;10357723;28;20805;-64
2023/12/15 03:00:11;;;;;;;17.27;12.63;;;4.70;99.90;;;5.15;100.00;99189.88;10368356;28;20337;-66
2023/12/15 03:05:14;;;;;;;22.13;13.73;;;4.70;99.90;;;5.12;100.00;99199.69;10360812;28;20234;-65
2023/12/15 03:10:19;;;;;;;21.60;13.37;;;4.60;99.90;;;5.17;100.00;99211.19;10364644;28;20320;-66
2023/12/15 03:15:22;;;;;;;24.67;14.77;;;4.60;99.90;;;5.11;100.00;99203.00;10360666;28;20234;-67
2023/12/15 03:20:25;;;;;;;21.70;13.90;;;4.60;99.90;;;5.06;100.00;99219.38;10368072;28;20254;-67
2023/12/15 03:25:30;;;;;;;22.03;13.73;;;4.60;99.90;;;5.05;100.00;99225.19;10367303;28;20272;-68
2023/12/15 03:30:33;;;;;;;21.10;13.73;;;4.60;99.90;;;5.17;100.00;99232.34;10366828;28;20233;-67
2023/12/15 03:35:36;;;;;;;22.20;13.37;;;4.60;99.90;;;5.23;100.00;99237.16;10373517;28;20664;-68
2023/12/15 03:40:41;;;;;;;20.83;13.40;;;4.60;99.90;;;5.08;100.00;99236.53;10364861;28;20348;-66
2023/12/15 03:45:44;;;;;;;19.73;12.77;;;4.60;99.90;;;5.05;100.00;99237.84;10374028;28;20659;-65
2023/12/15 03:50:47;;;;;;;20.80;12.57;;;4.50;99.90;;;5.02;100.00;99255.28;10368102;28;20320;-67
2023/12/15 03:55:51;;;;;;;21.60;12.40;;;4.50;99.90;;;5.11;100.00;99261.28;10377915;28;20801;-67
2023/12/15 04:00:55;;;;;;;20.93;13.43;;;4.60;99.90;;;5.00;100.00;99280.44;10364482;28;20616;-66
2023/12/15 04:05:58;;;;;;;19.27;12.37;;;4.50;99.90;;;4.95;100.00;99277.47;10364192;28;20226;-66
2023/12/15 04:11:02;;;;;;;20.03;13.00;;;4.50;99.90;;;4.94;100.00;99288.31;10365077;28;20238;-67
2023/12/15 04:16:07;;;;;;;17.90;11.97;;;4.40;99.90;;;4.91;100.00;99290.56;10357832;28;20762;-66
2023/12/15 04:21:10;;;;;;;20.00;12.50;;;4.50;99.90;;;4.99;100.00;99292.97;10361344;28;20262;-66
2023/12/15 04:26:14;;;;;;;18.57;12.00;;;4.50;99.90;;;5.01;100.00;99296.53;10369568;28;20231;-66
2023/12/15 04:31:18;;;;;;;18.23;12.57;;;4.40;99.90;;;4.87;100.00;99300.22;10382959;28;20249;-68
2023/12/15 04:36:21;;;;;;;16.10;11.20;;;4.40;99.90;;;4.91;100.00;99305.75;10367590;28;20740;-64
2023/12/15 04:41:26;;;;;;;15.90;10.90;;;4.40;99.90;;;4.95;100.00;99306.94;10373329;28;20237;-65
2023/12/15 04:46:31;;;;;;;18.10;11.30;;;4.50;99.90;;;5.00;100.00;99335.31;10370478;28;20222;-66
2023/12/15 04:51:34;;;;;;;17.33;12.47;;;4.50;99.90;;;4.93;100.00;99324.53;10372081;28;20231;-68
2023/12/15 04:56:39;;;;;;;19.47;12.00;;;4.50;99.90;;;4.96;100.00;99340.06;10376580;28;20230;-67
2023/12/15 05:01:44;;;;;;;21.17;12.40;;;4.50;99.90;;;4.99;100.00;99339.47;10372774;28;20222;-66
2023/12/15 05:06:47;;;;;;;20.87;16.37;;;4.50;99.90;;;5.08;100.00;99342.06;10372732;28;20230;-67
2023/12/15 05:11:52;;;;;;;17.80;14.80;;;4.50;99.90;;;5.05;100.00;99334.13;10371781;28;20317;-66
2023/12/15 05:16:55;;;;;;;18.27;13.63;;;4.50;99.90;;;5.03;100.00;99345.75;10371079;28;20284;-67
2023/12/15 05:21:58;;;;;;;16.23;12.23;;;4.50;99.90;;;4.99;100.00;99361.38;10366415;28;20233;-66
2023/12/15 05:27:03;;;;;;;14.57;11.33;;;4.50;99.90;;;5.00;100.00;99370.78;10368655;28;20235;-67
2023/12/15 05:32:07;;;;;;;17.80;11.77;;;4.50;99.90;;;4.97;100.00;99373.88;10366136;28;20219;-66
2023/12/15 05:37:10;;;;;;;19.87;12.57;;;4.40;99.90;;;4.92;100.00;99393.69;10366851;28;20237;-66
2023/12/15 05:42:16;;;;;;;15.93;12.10;;;4.40;99.90;;;5.03;100.00;99401.50;10377847;28;20225;-67
2023/12/15 05:47:19;;;;;;;16.47;12.23;;;4.50;99.90;;;4.95;100.00;99405.75;10363736;28;20234;-70
2023/12/15 05:52:25;;;;;;;15.30;11.73;;;4.50;99.90;;;4.95;100.00;99419.34;10362926;28;20292;-66
2023/12/15 05:57:29;;;;;;;14.93;10.90;;;4.50;99.90;;;4.88;100.00;99431.19;10369623;28;20242;-64
2023/12/15 06:02:32;;;;;;;13.67;10.57;;;4.40;99.90;;;4.91;100.00;99445.06;10376235;28;20226;-66
2023/12/15 06:07:36;;;;;;;15.07;11.43;;;4.40;99.90;;;4.99;100.00;99452.59;10367342;28;20230;-66
2023/12/15 06:12:41;;;;;;;15.97;11.00;;;4.50;99.90;;;4.90;100.00;99455.06;10372273;28;20299;-66
2023/12/15 06:17:44;;;;;;;13.57;11.27;;;4.40;99.90;;;4.95;100.00;99464.94;10366579;28;20236;-66
2023/12/15 06:22:48;;;;;;;14.33;10.50;;;4.40;99.90;;;4.96;100.00;99469.25;10374891;28;20214;-66
2023/12/15 06:27:56;;;;;;;15.17;10.90;;;4.50;99.90;;;5.02;100.00;99478.25;10360132;28;20634;-66
2023/12/15 06:32:59;;;;;;;15.63;11.63;;;4.50;99.90;;;5.00;100.00;99483.16;10365485;28;20248;-69
2023/12/15 06:38:02;;;;;;;16.37;11.43;;;4.50;99.90;;;4.94;100.00;99478.34;10363009;28;20230;-66
2023/12/15 06:43:07;;;;;;;16.87;11.70;;;4.50;99.90;;;4.97;100.00;99477.75;10362930;28;20218;-67
2023/12/15 06:48:10;;;;;;;14.63;11.07;;;4.50;99.90;;;5.03;100.00;99496.13;10355072;28;20693;-66
2023/12/15 06:53:13;;;;;;;15.87;11.20;;;4.50;99.90;;;5.03;100.00;99501.19;10364941;28;20602;-68
2023/12/15 06:58:18;;;;;;;15.53;11.87;;;4.50;99.90;;;5.09;100.00;99508.53;10371644;28;20234;-65
2023/12/15 07:03:22;;;;;;;16.47;12.87;;;4.60;99.90;;;5.06;100.00;99514.19;10357742;28;20226;-67
2023/12/15 07:08:25;;;;;;;15.60;12.23;;;4.60;99.90;;;5.01;100.00;99539.78;10358578;28;20348;-67
2023/12/15 07:13:30;;;;;;;15.70;12.00;;;4.50;99.90;;;5.04;100.00;99556.22;10370391;28;20227;-68
2023/12/15 07:18:34;;;;;;;17.00;12.57;;;4.50;99.90;;;5.02;100.00;99559.34;10360667;28;20230;-67
2023/12/15 07:23:37;;;;;;;15.27;11.07;;;4.50;99.90;;;5.15;100.00;99559.88;10361120;28;20226;-68
2023/12/15 07:28:42;;;;;;;15.30;11.33;;;4.60;99.90;;;5.02;100.00;99567.84;10357539;28;20230;-68
2023/12/15 07:33:45;;;;;;;15.03;11.37;;;4.50;99.90;;;5.03;100.00;99574.69;10363249;28;21458;-69
2023/12/15 07:38:48;;;;;;;15.33;11.93;;;4.50;99.90;;;5.07;100.00;99574.28;10367096;28;20312;-65
2023/12/15 07:43:53;;;;;;;15.20;12.43;;;4.60;99.90;;;5.13;100.00;99581.66;10361318;28;20684;-67
2023/12/15 07:48:56;;;;;;;13.57;11.10;;;4.60;99.90;;;5.18;100.00;99585.56;10371803;28;20233;-68
2023/12/15 07:54:00;;;;;;;14.53;11.70;;;4.70;99.90;;;5.14;100.00;99598.63;10364992;28;20642;-69
2023/12/15 07:59:04;;;;;;;15.83;12.13;;;4.60;99.90;;;5.19;100.00;99593.31;10369266;28;20603;-67
2023/12/15 08:04:10;;;;;;;25.23;19.20;;;4.60;99.90;;;5.24;100.00;99603.97;10368860;28;20241;-67
2023/12/15 08:09:13;;;;;;;24.07;18.13;;;4.60;99.90;;;5.19;100.00;99606.00;10366500;28;20244;-65
2023/12/15 08:14:18;;;;;;;17.50;14.37;;;4.60;99.90;;;5.19;100.00;99610.16;10366330;28;20229;-66
2023/12/15 08:19:21;;;;;;;19.10;15.07;;;4.60;99.90;;;5.20;100.00;99611.97;10371931;28;20315;-67
2023/12/15 08:24:24;;;;;;;22.57;16.10;;;4.70;99.90;;;5.19;100.00;99616.13;10372195;28;20222;-66
2023/12/15 08:29:28;;;;;;;16.47;13.30;;;4.70;99.90;;;5.30;100.00;99622.34;10372913;28;20321;-68
2023/12/15 08:34:32;;;;;;;14.47;10.83;;;4.70;99.90;;;5.42;100.00;99623.63;10371745;28;20327;-67
2023/12/15 08:39:35;;;;;;;13.63;11.53;;;4.80;99.90;;;5.51;100.00;99627.88;10368467;28;20710;-68
2023/12/15 08:44:43;;;;;;;12.77;11.17;;;4.90;99.90;;;5.49;100.00;99634.41;10374025;28;20626;-68
2023/12/15 08:49:47;;;;;;;17.83;12.00;;;4.90;99.90;;;5.50;100.00;99651.44;10367241;28;20227;-67
2023/12/15 08:54:51;;;;;;;14.50;11.47;;;4.90;99.90;;;5.55;100.00;99658.81;10362507;28;20690;-68
2023/12/15 08:59:55;;;;;;;13.30;10.63;;;5.00;99.90;;;5.55;100.00;99670.56;10366253;28;20230;-68
2023/12/15 09:05:00;;;;;;;11.43;9.63;;;5.00;99.90;;;5.56;100.00;99670.75;10369254;28;20217;-67
2023/12/15 09:10:11;;;;;;;11.03;9.90;;;5.00;99.90;;;5.65;100.00;99680.94;10365491;28;20238;-67
2023/12/15 09:15:16;;;;;;;11.70;10.47;;;5.10;99.90;;;5.68;100.00;99672.78;10370236;28;20392;-68
2023/12/15 09:20:19;;;;;;;11.83;10.50;;;5.10;99.90;;;5.79;100.00;99670.63;10367637;28;20544;-68
2023/12/15 09:25:23;;;;;;;11.37;10.17;;;5.20;99.90;;;5.87;100.00;99679.94;10360748;28;20250;-68
2023/12/15 09:30:27;;;;;;;12.33;11.13;;;5.20;99.90;;;5.95;100.00;99675.72;10361921;28;20233;-66
2023/12/15 09:35:30;;;;;;;13.03;10.77;;;5.30;99.90;;;6.16;100.00;99684.63;10367320;28;20234;-67
2023/12/15 09:40:34;;;;;;;11.27;9.73;;;5.50;99.90;;;6.14;100.00;99686.09;10365327;28;20234;-67
2023/12/15 09:45:38;;;;;;;11.63;10.53;;;5.40;99.90;;;6.25;100.00;99692.31;10369970;28;20229;-67
2023/12/15 09:50:46;;;;;;;11.83;10.60;;;5.60;99.90;;;6.13;100.00;99688.50;10369976;28;20722;-67
2023/12/15 09:55:51;;;;;;;12.00;10.37;;;5.60;99.90;;;6.19;100.00;99692.56;10368029;28;20234;-66
2023/12/15 10:00:55;;;;;;;12.20;10.20;;;5.60;99.90;;;6.24;100.00;99693.94;10360653;28;20225;-67
2023/12/15 10:05:59;;;;;;;13.87;12.23;;;5.60;99.90;;;6.30;100.00;99686.97;10359567;28;20226;-66
2023/12/15 10:11:02;;;;;;;12.20;11.00;;;5.60;99.90;;;6.22;100.00;99690.34;10364395;28;20520;-69
2023/12/15 10:16:09;;;;;;;15.20;11.37;;;5.60;99.90;;;6.34;100.00;99700.88;10361516;28;20232;-67
2023/12/15 10:21:12;;;;;;;12.50;10.37;;;5.70;99.90;;;6.28;100.00;99711.28;10361525;28;20222;-66
2023/12/15 10:26:15;;;;;;;12.27;10.00;;;5.60;99.90;;;6.35;100.00;99706.84;10362134;28;20223;-68
2023/12/15 10:31:19;;;;;;;15.13;11.67;;;5.80;99.90;;;6.34;100.00;99707.59;10368271;28;20620;-68
2023/12/15 10:36:24;;;;;;;13.83;11.97;;;5.70;99.90;;;6.53;100.00;99721.44;10359651;28;20253;-67
2023/12/15 10:41:30;;;;;;;13.60;11.30;;;5.90;99.90;;;6.57;100.00;99721.00;10363561;28;20774;-68
2023/12/15 10:46:35;;;;;;;15.77;13.13;;;5.90;99.90;;;6.64;100.00;99714.91;10361663;28;20703;-67
2023/12/15 10:51:39;;;;;;;12.17;10.90;;;6.00;99.90;;;6.63;100.00;99731.78;10362127;28;20309;-67
2023/12/15 10:56:43;;;;;;;13.17;11.67;;;6.00;99.90;;;6.76;100.00;99737.41;10367128;28;20658;-66
2023/12/15 11:01:48;;;;;;;13.37;11.90;;;6.20;99.90;;;6.89;100.00;99738.63;10367729;28;20265;-67
2023/12/15 11:06:51;;;;;;;12.83;11.17;;;6.20;99.90;;;7.03;100.00;99732.41;10360683;28;20305;-67
2023/12/15 11:12:37;;;;;;;13.10;11.77;;;6.30;99.90;;;6.96;100.00;99734.34;10360641;28;20309;-67
2023/12/15 11:17:49;;;;;;;13.57;11.80;;;6.30;99.90;;;7.13;100.00;99735.16;10336862;28;20360;-67
2023/12/15 11:22:55;;;;;;;13.73;11.47;;;6.50;99.90;;;7.10;100.00;99730.66;10361060;28;20316;-68
2023/12/15 11:28:07;;;;;;;12.67;10.80;;;6.50;99.90;;;7.21;100.00;99735.19;10357568;28;20225;-69
2023/12/15 11:33:44;;;;;;;12.17;10.87;;;6.60;99.90;;;7.36;100.00;99735.81;10365167;28;20587;-67
2023/12/15 11:38:49;;;;;;;13.13;11.83;;;6.70;99.90;;;7.61;100.00;99734.06;10357916;28;20319;-67
2023/12/15 11:43:53;;;;;;;12.67;11.37;;;6.90;99.90;;;7.57;100.00;99739.56;10365675;28;20218;-68
2023/12/15 11:48:57;;;;;;;13.33;11.47;;;7.00;99.90;;;7.62;100.00;99740.94;10359153;28;20313;-66
2023/12/15 11:54:03;;;;;;;13.90;12.00;;;6.90;99.90;;;7.72;100.00;99732.53;10352823;28;20715;-66
2023/12/15 11:59:06;;;;;;;12.83;11.53;;;7.00;99.90;;;7.51;100.00;99746.59;10353898;28;20690;-66
2023/12/15 12:04:19;;;;;;;13.37;11.97;;;6.90;99.90;;;7.76;100.00;99738.88;10349472;28;20648;-67
2023/12/15 12:09:23;;;;;;;13.33;11.93;;;7.10;99.90;;;7.48;100.00;99743.75;10356835;28;20835;-68
2023/12/15 12:14:27;;;;;;;13.40;12.03;;;6.90;99.90;;;7.50;100.00;99752.44;10356322;28;20621;-69
2023/12/15 12:19:40;;;;;;;12.80;11.50;;;6.90;99.90;;;7.43;100.00;99747.47;10353772;28;20234;-69
2023/12/15 12:24:43;;;;;;;11.63;10.23;;;6.80;99.90;;;7.32;100.00;99743.84;10353412;28;20360;-70
2023/12/15 12:29:46;;;;;;;12.95;11.25;;;6.60;99.90;;;7.30;100.00;99747.91;10353606;28;20235;-67
2023/12/15 12:34:51;;;;;;;12.47;11.17;;;6.60;99.90;;;7.28;100.00;99740.88;10355341;28;20229;-67
2023/12/15 12:39:55;;;;;;;12.70;11.00;;;6.60;99.90;;;7.23;100.00;99738.75;10354933;28;20234;-67
2023/12/15 12:44:59;;;;;;;12.40;10.77;;;6.60;99.90;;;7.29;100.00;99735.94;10356524;28;20230;-67
2023/12/15 12:50:04;;;;;;;11.87;10.20;;;6.60;99.90;;;7.37;100.00;99737.59;10367470;28;20801;-67
2023/12/15 12:55:08;;;;;;;11.17;10.07;;;6.70;99.90;;;7.41;100.00;99738.78;10360902;28;20317;-67
2023/12/15 13:00:13;;;;;;;11.57;10.33;;;6.70;99.90;;;7.39;100.00;99737.75;10366701;28;20229;-65
2023/12/15 13:05:18;;;;;;;11.47;10.17;;;6.70;99.90;;;7.36;100.00;99745.09;10369523;28;20230;-65
2023/12/15 13:10:21;;;;;;;11.73;10.57;;;6.70;99.90;;;7.29;100.00;99751.19;10361706;28;20234;-67
2023/12/15 13:15:24;;;;;;;12.88;11.50;;;6.70;99.90;;;7.35;100.00;99749.25;10366444;28;20238;-67
2023/12/15 13:20:29;;;;;;;12.60;11.30;;;6.70;99.90;;;7.37;100.00;99740.13;10370802;28;20732;-67
2023/12/15 13:25:32;;;;;;;12.23;10.93;;;6.70;99.90;;;7.41;100.00;99744.81;10369418;28;20245;-68
2023/12/15 13:30:36;;;;;;;11.80;10.10;;;6.80;99.90;;;7.43;100.00;99742.41;10365458;28;20238;-67
2023/12/15 13:35:40;;;;;;;11.20;9.97;;;6.80;99.90;;;7.48;100.00;99751.38;10366314;28;20222;-67
2023/12/15 13:40:44;;;;;;;11.20;10.20;;;6.80;99.90;;;7.51;100.00;99750.81;10360815;28;20228;-67
2023/12/15 13:45:47;;;;;;;11.50;10.37;;;6.80;99.90;;;7.53;100.00;99742.56;10363614;28;20222;-66
2023/12/15 13:51:05;;;;;;;10.80;9.47;;;6.80;99.90;;;7.55;100.00;99753.78;10356182;28;20702;-67
2023/12/15 13:56:09;;;;;;;10.50;9.30;;;6.80;99.90;;;7.54;100.00;99753.66;10354736;28;20711;-65
2023/12/15 14:01:13;;;;;;;10.73;9.30;;;6.80;99.90;;;7.56;100.00;99772.53;10358141;28;20658;-65
2023/12/15 14:06:17;;;;;;;9.70;8.70;;;6.80;99.90;;;7.49;100.00;99782.81;10357423;28;20234;-68
2023/12/15 14:11:21;;;;;;;9.32;8.43;;;6.80;99.90;;;7.38;100.00;99789.34;10362728;28;20253;-67
2023/12/15 14:16:24;;;;;;;8.77;7.80;;;6.80;99.90;;;7.33;100.00;99800.75;10361465;28;20236;-67
2023/12/15 14:21:44;;;;;;;10.57;8.60;;;6.70;99.90;;;7.31;100.00;99803.13;10355761;28;20591;-67
2023/12/15 14:26:47;;;;;;;11.80;9.63;;;6.70;99.90;;;7.56;100.00;99806.50;10359841;28;20214;-68
2023/12/15 14:31:51;;;;;;;11.00;9.90;;;6.90;99.90;;;7.31;100.00;99826.00;10358801;28;20226;-67
2023/12/15 14:36:55;;;;;;;9.10;8.20;;;6.70;99.90;;;7.22;100.00;99825.97;10354394;28;20218;-68
2023/12/15 14:41:58;;;;;;;8.13;7.33;;;6.60;99.90;;;7.23;100.00;99840.47;10365135;28;20272;-69
2023/12/15 14:47:02;;;;;;;8.10;7.27;;;6.60;99.90;;;7.28;100.00;99835.88;10356820;28;20229;-66
2023/12/15 14:52:08;;;;;;;9.37;8.47;;;6.60;99.90;;;7.22;100.00;99843.78;10361231;28;20226;-67
2023/12/15 14:57:11;;;;;;;9.47;7.80;;;6.60;99.90;;;7.24;100.00;99849.03;10364954;28;20262;-68
2023/12/15 15:02:14;;;;;;;9.13;8.13;;;6.60;99.90;;;7.20;100.00;99847.78;10366851;28;20225;-67
2023/12/15 15:07:19;;;;;;;7.73;6.80;;;6.60;99.90;;;7.21;100.00;99847.06;10357404;28;20232;-67
2023/12/15 15:12:25;;;;;;;8.57;7.13;;;6.60;99.90;;;7.13;100.00;99847.94;10361669;28;20302;-66
2023/12/15 15:17:28;;;;;;;6.57;6.07;;;6.50;99.90;;;7.09;100.00;99860.16;10359980;28;20234;-66
2023/12/15 15:22:33;;;;;;;6.20;5.70;;;6.50;99.90;;;7.02;100.00;99855.19;10354609;28;20225;-67
2023/12/15 15:27:37;;;;;;;7.70;7.00;;;6.50;99.90;;;7.01;100.00;99877.19;10369693;28;20242;-67
2023/12/15 15:32:40;;;;;;;8.13;7.33;;;6.50;99.90;;;6.95;100.00;99876.53;10356085;28;20308;-67
2023/12/15 15:37:46;;;;;;;6.67;6.07;;;6.40;99.90;;;6.93;100.00;99890.75;10367145;28;20274;-69
2023/12/15 15:42:51;;;;;;;8.90;8.03;;;6.40;99.90;;;7.10;100.00;99873.03;10368021;28;20221;-67
2023/12/15 15:47:55;;;;;;;9.10;7.47;;;6.50;99.90;;;6.92;100.00;99886.38;10354403;28;20234;-67
2023/12/15 15:53:00;;;;;;;8.30;7.50;;;6.30;99.90;;;6.81;100.00;99884.34;10354795;28;20756;-68
2023/12/15 15:58:03;;;;;;;8.60;7.90;;;6.30;99.90;;;6.70;100.00;99881.63;10358727;28;20230;-70
2023/12/15 16:03:06;;;;;;;8.50;7.60;;;6.20;99.90;;;6.74;100.00;99881.19;10354558;28;20283;-67
2023/12/15 16:08:10;;;;;;;8.63;7.73;;;6.20;99.90;;;6.69;100.00;99892.50;10354370;28;20230;-67
2023/12/15 16:13:13;;;;;;;8.43;7.63;;;6.20;99.90;;;6.63;100.00;99899.47;10350806;28;20234;-66
2023/12/15 16:18:17;;;;;;;9.23;7.87;;;6.10;99.90;;;6.63;100.00;99902.03;10356129;28;20221;-70
2023/12/15 16:23:24;;;;;;;8.57;7.67;;;6.10;99.90;;;6.55;100.00;99907.94;10360353;28;20222;-66
2023/12/15 16:28:27;;;;;;;16.20;12.87;;;6.10;99.90;;;6.55;100.00;99907.94;10367358;28;20245;-66
2023/12/15 16:33:30;;;;;;;11.53;9.87;;;6.00;99.90;;;6.49;100.00;99912.38;10362195;28;20746;-68
2023/12/15 16:38:35;;;;;;;10.20;8.97;;;6.00;99.90;;;6.51;100.00;99919.41;10358526;28;20723;-67
2023/12/15 16:43:38;;;;;;;9.53;8.53;;;6.00;99.90;;;6.51;100.00;99921.94;10364264;28;20253;-67
2023/12/15 16:48:44;;;;;;;10.47;9.47;;;6.10;99.90;;;6.54;100.00;99924.81;10355013;28;20775;-67
2023/12/15 16:53:50;;;;;;;10.07;8.60;;;6.10;99.90;;;6.57;100.00;99930.97;10361019;28;20222;-67
2023/12/15 16:58:54;;;;;;;9.03;8.13;;;6.00;99.90;;;6.57;100.00;99947.09;10356572;28;20809;-66
2023/12/15 17:03:57;;;;;;;11.17;9.77;;;6.00;99.90;;;6.51;100.00;99947.34;10362263;28;22313;-68
2023/12/15 17:09:01;;;;;;;10.63;9.27;;;6.00;99.90;;;6.52;100.00;99945.72;10361905;28;20305;-67
2023/12/15 17:14:05;;;;;;;13.73;11.33;;;6.00;99.90;;;6.54;100.00;99941.69;10360457;28;20663;-67
2023/12/15 17:19:08;;;;;;;12.27;11.17;;;6.00;99.90;;;6.55;100.00;99953.66;10366647;28;20415;-66
2023/12/15 17:24:13;;;;;;;13.40;12.20;;;6.00;99.90;;;6.57;100.00;99961.47;10353381;28;20791;-66
2023/12/15 17:29:16;;;;;;;13.03;11.63;;;6.00;99.90;;;6.50;100.00;99976.03;10360763;28;20348;-67
2023/12/15 17:34:20;;;;;;;13.93;12.27;;;5.90;99.90;;;6.51;100.00;99982.03;10350858;28;20649;-67
2023/12/15 17:39:25;;;;;;;14.93;12.57;;;6.00;99.90;;;6.46;100.00;99990.78;10357319;28;20238;-65
2023/12/15 17:44:28;;;;;;;15.90;14.20;;;5.90;99.90;;;6.42;100.00;99991.22;10355725;28;20587;-67
2023/12/15 17:49:31;;;;;;;14.33;12.83;;;5.90;99.90;;;6.37;100.00;100011.00;10363591;28;20722;-64
2023/12/15 17:54:36;;;;;;;18.97;15.30;;;5.90;99.90;;;6.31;100.00;100013.78;10361988;28;20225;-66
2023/12/15 17:59:40;;;;;;;20.47;15.73;;;5.90;99.90;;;6.34;100.00;100007.25;10371133;28;20222;-66
2023/12/15 18:04:43;;;;;;;18.47;16.20;;;5.90;99.90;;;6.38;100.00;100010.31;10370234;28;20788;-66
2023/12/15 18:09:48;;;;;;;52.60;33.90;;;5.90;99.90;;;6.42;100.00;100001.38;10369854;28;20230;-65
2023/12/15 18:14:51;;;;;;;20.97;16.50;;;5.90;99.90;;;6.45;100.00;100014.38;10368930;28;20694;-66
2023/12/15 18:19:54;;;;;;;17.77;15.73;;;5.90;99.90;;;6.41;100.00;100024.94;10363636;28;20837;-67
2023/12/15 18:24:59;;;;;;;17.00;15.13;;;5.90;99.90;;;6.40;100.00;100036.75;10368576;28;20238;-66
2023/12/15 18:30:02;;;;;;;17.57;15.10;;;5.90;99.90;;;6.41;100.00;100035.09;10361535;28;20233;-65
2023/12/15 18:35:07;;;;;;;17.80;15.97;;;5.90;99.90;;;6.35;100.00;100047.13;10368773;28;20577;-67
2023/12/15 18:40:12;;;;;;;19.30;16.97;;;5.90;99.90;;;6.36;100.00;100061.66;10360658;28;20610;-67
2023/12/15 18:45:16;;;;;;;19.70;17.67;;;5.90;99.90;;;6.41;100.00;100069.03;10368248;28;20341;-66
2023/12/15 18:50:19;;;;;;;19.33;16.43;;;5.90;99.90;;;6.42;100.00;100067.41;10369078;28;20225;-67
2023/12/15 18:55:24;;;;;;;19.43;16.87;;;5.90;99.90;;;6.45;100.00;100067.72;10358805;28;20230;-67
2023/12/15 19:00:27;;;;;;;20.57;18.03;;;5.90;99.90;;;6.43;100.00;100064.13;10363018;28;20241;-68
2023/12/15 19:05:30;;;;;;;19.03;16.57;;;5.90;99.90;;;6.35;100.00;100052.22;10359122;28;20669;-67
2023/12/15 19:10:35;;;;;;;21.53;18.43;;;5.90;99.90;;;6.30;100.00;100057.72;10362985;28;20238;-66
2023/12/15 19:15:38;;;;;;;27.97;22.10;;;5.80;99.90;;;6.34;100.00;100047.88;10356796;28;20898;-67
2023/12/15 19:20:42;;;;;;;20.23;17.00;;;5.90;99.90;;;6.30;100.00;100052.63;10364883;28;20689;-67
2023/12/15 19:25:47;;;;;;;20.80;18.53;;;5.80;99.90;;;6.27;100.00;100059.91;10366361;28;20225;-66
2023/12/15 19:30:50;;;;;;;23.33;20.93;;;5.80;99.90;;;6.26;100.00;100065.72;10359224;28;20234;-67
2023/12/15 19:35:54;;;;;;;20.83;18.73;;;5.80;99.90;;;6.23;100.00;100062.84;10363731;28;20230;-66
2023/12/15 19:40:58;;;;;;;21.57;19.27;;;5.80;99.90;;;6.24;100.00;100062.13;10357536;28;20238;-67
2023/12/15 19:46:01;;;;;;;20.27;18.07;;;5.80;99.90;;;6.28;100.00;100069.31;10362683;28;20230;-67
2023/12/15 19:51:05;;;;;;;18.43;16.43;;;5.80;99.90;;;6.25;100.00;100053.75;10357032;28;20280;-67
2023/12/15 19:56:10;;;;;;;18.83;16.03;;;5.80;99.90;;;6.26;100.00;100064.81;10365949;28;20230;-68
2023/12/15 20:01:26;;;;;;;25.40;19.37;;;5.80;99.90;;;6.23;100.00;100070.44;10364971;28;20226;-68
2023/12/15 20:06:32;;;;;;;22.67;19.23;;;5.80;99.90;;;6.23;100.00;100075.53;10369958;28;20237;-67
2023/12/15 20:11:37;;;;;;;25.00;20.53;;;5.70;99.90;;;6.23;100.00;100080.63;10365083;28;20733;-66
2023/12/15 20:16:40;;;;;;;22.33;19.73;;;5.80;99.90;;;6.37;100.00;100063.44;10370538;28;20311;-66
2023/12/15 20:21:43;;;;;;;20.10;18.00;;;5.80;99.90;;;6.34;100.00;100073.28;10379649;28;20319;-67
2023/12/15 20:26:49;;;;;;;23.23;20.13;;;5.80;99.90;;;6.26;100.00;100087.66;10378530;28;20289;-67
2023/12/15 20:31:54;;;;;;;21.83;19.53;;;5.70;99.90;;;6.18;100.00;100078.31;10369743;28;20308;-70
2023/12/15 20:36:57;;;;;;;23.37;20.47;;;5.70;99.90;;;6.16;100.00;100068.00;10371021;28;20245;-67
2023/12/15 20:42:01;;;;;;;22.37;19.97;;;5.70;99.90;;;6.13;100.00;100082.91;10371635;28;20625;-66
2023/12/15 20:47:05;;;;;;;22.57;20.10;;;5.70;99.90;;;6.19;100.00;100096.25;10366913;28;20231;-67
2023/12/15 20:52:08;;;;;;;20.13;17.83;;;5.80;99.90;;;6.21;100.00;100097.34;10369609;28;20796;-67
2023/12/15 20:57:13;;;;;;;19.30;17.23;;;5.80;99.90;;;6.23;100.00;100106.00;10375448;28;20230;-67